sensor_id;sensor_type;location;lat;lon;timestamp;pressure;altitude;pressure_sealevel;temperature;humidity
43430;BME280;29028;43.234;27.896;2022-11-14T05:01:47;101290.00;;;7.29;100.00
43430;BME280;29028;43.234;27.896;2022-11-14T05:02:09;101295.34;;;7.29;100.00
43430;BME280;29028;43.234;27.896;2022-11-14T05:02:37;101284.50;;;7.31;100.00
43430;BME280;29028;43.234;27.896;2022-11-14T05:02:58;101288.88;;;7.32;100.00
43430;BME280;29028;43.234;27.896;2022-11-14T05:03:19;101288.44;;;7.36;100.00
43430;BME280;29028;43.234;27.896;2022-11-14T05:03:41;101296.34;;;7.38;100.00
43430;BME280;29028;43.234;27.896;2022-11-14T05:04:04;101282.38;;;7.34;100.00
43430;BME280;29028;43.234;27.896;2022-11-14T05:04:25;101293.53;;;7.39;100.00
43430;BME280;29028;43.234;27.896;2022-11-14T05:04:46;101298.88;;;7.39;100.00
43430;BME280;29028;43.234;27.896;2022-11-14T05:05:08;101295.06;;;7.42;100.00
43430;BME280;29028;43.234;27.896;2022-11-14T05:05:30;101294.94;;;7.43;100.00
43430;BME280;29028;43.234;27.896;2022-11-14T05:05:51;101281.94;;;7.39;100.00
43430;BME280;29028;43.234;27.896;2022-11-14T05:06:12;101293.09;;;7.44;100.00
43430;BME280;29028;43.234;27.896;2022-11-14T05:06:36;101288.59;;;7.44;100.00
43430;BME280;29028;43.234;27.896;2022-11-14T05:07:00;101300.84;;;7.47;100.00
43430;BME280;29028;43.234;27.896;2022-11-14T05:07:28;101292.38;;;7.51;100.00
43430;BME280;29028;43.234;27.896;2022-11-14T05:07:49;101305.63;;;7.53;100.00
43430;BME280;29028;43.234;27.896;2022-11-14T05:08:12;101294.63;;;7.46;100.00
43430;BME280;29028;43.234;27.896;2022-11-14T05:08:35;101302.09;;;7.52;100.00
43430;BME280;29028;43.234;27.896;2022-11-14T05:08:56;101281.53;;;7.43;100.00
43430;BME280;29028;43.234;27.896;2022-11-14T05:09:18;101297.59;;;7.53;100.00
43430;BME280;29028;43.234;27.896;2022-11-14T05:09:39;101298.84;;;7.58;100.00
43430;BME280;29028;43.234;27.896;2022-11-14T05:10:00;101309.44;;;7.60;100.00
43430;BME280;29028;43.234;27.896;2022-11-14T05:10:21;101301.53;;;7.58;100.00
43430;BME280;29028;43.234;27.896;2022-11-14T05:10:43;101302.50;;;7.76;100.00
43430;BME280;29028;43.234;27.896;2022-11-14T05:11:04;101296.69;;;8.27;100.00
43430;BME280;29028;43.234;27.896;2022-11-14T05:11:26;101286.38;;;8.76;100.00
43430;BME280;29028;43.234;27.896;2022-11-14T05:11:51;101296.84;;;9.75;100.00
43430;BME280;29028;43.234;27.896;2022-11-14T05:12:13;101298.06;;;10.39;100.00
43430;BME280;29028;43.234;27.896;2022-11-14T05:12:36;101294.13;;;10.59;100.00
43430;BME280;29028;43.234;27.896;2022-11-14T05:13:00;101303.78;;;10.94;100.00
43430;BME280;29028;43.234;27.896;2022-11-14T05:13:21;101288.03;;;11.23;100.00
43430;BME280;29028;43.234;27.896;2022-11-14T05:13:44;101294.59;;;11.36;100.00
43430;BME280;29028;43.234;27.896;2022-11-14T05:14:05;101299.47;;;11.49;100.00
43430;BME280;29028;43.234;27.896;2022-11-14T05:14:31;101295.59;;;11.51;100.00
43430;BME280;29028;43.234;27.896;2022-11-14T05:14:52;101297.47;;;11.51;100.00
43430;BME280;29028;43.234;27.896;2022-11-14T05:15:14;101292.56;;;11.38;100.00
43430;BME280;29028;43.234;27.896;2022-11-14T05:15:35;101289.53;;;11.25;100.00
43430;BME280;29028;43.234;27.896;2022-11-14T05:15:58;101294.91;;;11.17;100.00
43430;BME280;29028;43.234;27.896;2022-11-14T05:16:37;101296.22;;;10.89;100.00
43430;BME280;29028;43.234;27.896;2022-11-14T05:17:00;101295.81;;;10.68;100.00
43430;BME280;29028;43.234;27.896;2022-11-14T05:17:30;101301.06;;;10.28;100.00
43430;BME280;29028;43.234;27.896;2022-11-14T05:17:59;101292.25;;;10.18;100.00
43430;BME280;29028;43.234;27.896;2022-11-14T05:18:21;101295.06;;;10.09;100.00
43430;BME280;29028;43.234;27.896;2022-11-14T05:18:44;101295.69;;;10.03;100.00
43430;BME280;29028;43.234;27.896;2022-11-14T05:19:04;101302.00;;;9.94;100.00
43430;BME280;29028;43.234;27.896;2022-11-14T05:19:25;101296.22;;;9.81;100.00
43430;BME280;29028;43.234;27.896;2022-11-14T05:19:46;101300.50;;;9.74;100.00
43430;BME280;29028;43.234;27.896;2022-11-14T05:20:11;101296.91;;;9.65;100.00
43430;BME280;29028;43.234;27.896;2022-11-14T05:20:32;101297.75;;;9.40;100.00
43430;BME280;29028;43.234;27.896;2022-11-14T05:20:57;101299.06;;;9.19;100.00
43430;BME280;29028;43.234;27.896;2022-11-14T05:21:20;101303.34;;;8.94;100.00
43430;BME280;29028;43.234;27.896;2022-11-14T05:21:50;101297.13;;;8.76;100.00
43430;BME280;29028;43.234;27.896;2022-11-14T05:22:11;101301.44;;;8.60;100.00
43430;BME280;29028;43.234;27.896;2022-11-14T05:22:34;101303.00;;;8.35;100.00
43430;BME280;29028;43.234;27.896;2022-11-14T05:22:55;101295.25;;;8.32;100.00
43430;BME280;29028;43.234;27.896;2022-11-14T05:23:19;101300.16;;;8.37;100.00
43430;BME280;29028;43.234;27.896;2022-11-14T05:23:40;101297.38;;;8.29;100.00
43430;BME280;29028;43.234;27.896;2022-11-14T05:24:12;101304.19;;;8.23;100.00
43430;BME280;29028;43.234;27.896;2022-11-14T05:24:43;101296.16;;;8.14;100.00
43430;BME280;29028;43.234;27.896;2022-11-14T05:25:09;101303.00;;;8.35;100.00
43430;BME280;29028;43.234;27.896;2022-11-14T05:25:34;101288.34;;;8.30;100.00
43430;BME280;29028;43.234;27.896;2022-11-14T05:25:59;101302.06;;;8.17;100.00
43430;BME280;29028;43.234;27.896;2022-11-14T05:26:20;101304.75;;;8.17;100.00
43430;BME280;29028;43.234;27.896;2022-11-14T05:26:44;101308.16;;;8.10;100.00
43430;BME280;29028;43.234;27.896;2022-11-14T05:27:16;101306.13;;;7.85;100.00
43430;BME280;29028;43.234;27.896;2022-11-14T05:27:50;101303.47;;;7.75;100.00
43430;BME280;29028;43.234;27.896;2022-11-14T05:28:11;101308.03;;;7.65;100.00
43430;BME280;29028;43.234;27.896;2022-11-14T05:28:35;101306.47;;;7.63;100.00
43430;BME280;29028;43.234;27.896;2022-11-14T05:28:59;101303.63;;;7.64;100.00
43430;BME280;29028;43.234;27.896;2022-11-14T05:29:22;101302.94;;;7.62;100.00
43430;BME280;29028;43.234;27.896;2022-11-14T05:29:46;101307.28;;;7.63;100.00
43430;BME280;29028;43.234;27.896;2022-11-14T05:30:09;101313.63;;;7.72;100.00
43430;BME280;29028;43.234;27.896;2022-11-14T05:30:30;101301.75;;;7.84;100.00
43430;BME280;29028;43.234;27.896;2022-11-14T05:30:51;101308.97;;;7.83;100.00
43430;BME280;29028;43.234;27.896;2022-11-14T05:31:14;101312.31;;;7.85;100.00
43430;BME280;29028;43.234;27.896;2022-11-14T05:31:37;101302.16;;;7.89;100.00
43430;BME280;29028;43.234;27.896;2022-11-14T05:32:05;101309.34;;;7.98;100.00
43430;BME280;29028;43.234;27.896;2022-11-14T05:32:26;101320.75;;;8.00;100.00
43430;BME280;29028;43.234;27.896;2022-11-14T05:32:50;101307.75;;;8.05;100.00
43430;BME280;29028;43.234;27.896;2022-11-14T05:33:15;101306.38;;;8.01;100.00
43430;BME280;29028;43.234;27.896;2022-11-14T05:33:40;101309.50;;;7.87;100.00
43430;BME280;29028;43.234;27.896;2022-11-14T05:34:00;101314.22;;;7.66;100.00
43430;BME280;29028;43.234;27.896;2022-11-14T05:34:53;101315.34;;;7.63;100.00
43430;BME280;29028;43.234;27.896;2022-11-14T05:35:10;101301.53;;;7.49;100.00
43430;BME280;29028;43.234;27.896;2022-11-14T05:35:31;101306.31;;;7.55;100.00
43430;BME280;29028;43.234;27.896;2022-11-14T05:35:54;101301.81;;;7.55;100.00
43430;BME280;29028;43.234;27.896;2022-11-14T05:36:16;101306.88;;;7.58;100.00
43430;BME280;29028;43.234;27.896;2022-11-14T05:36:37;101311.00;;;7.53;100.00
43430;BME280;29028;43.234;27.896;2022-11-14T05:37:00;101299.41;;;7.62;100.00
43430;BME280;29028;43.234;27.896;2022-11-14T05:37:23;101310.84;;;7.64;100.00
43430;BME280;29028;43.234;27.896;2022-11-14T05:37:44;101308.84;;;7.66;100.00
43430;BME280;29028;43.234;27.896;2022-11-14T05:38:04;101301.38;;;7.60;100.00
43430;BME280;29028;43.234;27.896;2022-11-14T05:38:28;101306.06;;;7.58;100.00
43430;BME280;29028;43.234;27.896;2022-11-14T05:38:50;101306.75;;;7.60;100.00
43430;BME280;29028;43.234;27.896;2022-11-14T05:39:11;101310.69;;;7.56;100.00
43430;BME280;29028;43.234;27.896;2022-11-14T05:39:32;101312.53;;;7.46;100.00
43430;BME280;29028;43.234;27.896;2022-11-14T05:39:52;101305.09;;;7.49;100.00
43430;BME280;29028;43.234;27.896;2022-11-14T05:40:16;101308.00;;;7.56;100.00
43430;BME280;29028;43.234;27.896;2022-11-14T05:40:38;101300.84;;;7.47;100.00
43430;BME280;29028;43.234;27.896;2022-11-14T05:41:03;101306.78;;;7.50;100.00
43430;BME280;29028;43.234;27.896;2022-11-14T05:41:24;101309.69;;;7.57;100.00
43430;BME280;29028;43.234;27.896;2022-11-14T05:41:47;101312.00;;;7.52;100.00
43430;BME280;29028;43.234;27.896;2022-11-14T05:42:08;101312.53;;;7.46;100.00
43430;BME280;29028;43.234;27.896;2022-11-14T05:42:29;101305.09;;;7.49;100.00
43430;BME280;29028;43.234;27.896;2022-11-14T05:42:53;101306.38;;;7.36;100.00
43430;BME280;29028;43.234;27.896;2022-11-14T05:43:16;101302.97;;;7.34;100.00
43430;BME280;29028;43.234;27.896;2022-11-14T05:43:37;101311.28;;;7.40;100.00
43430;BME280;29028;43.234;27.896;2022-11-14T05:43:58;101306.47;;;7.44;100.00
43430;BME280;29028;43.234;27.896;2022-11-14T05:44:19;101306.91;;;7.39;100.00
43430;BME280;29028;43.234;27.896;2022-11-14T05:44:41;101312.13;;;7.31;100.00
43430;BME280;29028;43.234;27.896;2022-11-14T05:45:02;101315.22;;;7.36;100.00
43430;BME280;29028;43.234;27.896;2022-11-14T05:45:22;101307.31;;;7.35;100.00
43430;BME280;29028;43.234;27.896;2022-11-14T05:45:43;101304.66;;;7.35;100.00
43430;BME280;29028;43.234;27.896;2022-11-14T05:46:06;101313.41;;;7.27;100.00
43430;BME280;29028;43.234;27.896;2022-11-14T05:46:28;101316.34;;;7.34;100.00
43430;BME280;29028;43.234;27.896;2022-11-14T05:46:49;101317.50;;;7.41;100.00
43430;BME280;29028;43.234;27.896;2022-11-14T05:47:11;101313.69;;;7.34;100.00
43430;BME280;29028;43.234;27.896;2022-11-14T05:47:32;101314.56;;;7.25;100.00
43430;BME280;29028;43.234;27.896;2022-11-14T05:47:52;101324.41;;;7.24;100.00
43430;BME280;29028;43.234;27.896;2022-11-14T05:48:14;101311.69;;;7.26;100.00
43430;BME280;29028;43.234;27.896;2022-11-14T05:48:36;101314.13;;;7.29;100.00
43430;BME280;29028;43.234;27.896;2022-11-14T05:48:57;101319.03;;;7.34;100.00
43430;BME280;29028;43.234;27.896;2022-11-14T05:49:18;101316.22;;;7.35;100.00
43430;BME280;29028;43.234;27.896;2022-11-14T05:49:40;101317.09;;;7.36;100.00
43430;BME280;29028;43.234;27.896;2022-11-14T05:50:00;101311.00;;;7.43;100.00
43430;BME280;29028;43.234;27.896;2022-11-14T05:50:21;101310.84;;;7.45;100.00
43430;BME280;29028;43.234;27.896;2022-11-14T05:50:42;101322.97;;;7.49;100.00
43430;BME280;29028;43.234;27.896;2022-11-14T05:51:05;101317.50;;;7.41;100.00
43430;BME280;29028;43.234;27.896;2022-11-14T05:51:26;101311.84;;;7.44;100.00
43430;BME280;29028;43.234;27.896;2022-11-14T05:51:47;101310.84;;;7.45;100.00
43430;BME280;29028;43.234;27.896;2022-11-14T05:52:08;101317.19;;;7.44;100.00
43430;BME280;29028;43.234;27.896;2022-11-14T05:52:30;101310.59;;;7.38;100.00
43430;BME280;29028;43.234;27.896;2022-11-14T05:52:51;101305.63;;;7.53;100.00
43430;BME280;29028;43.234;27.896;2022-11-14T05:53:12;101318.31;;;7.60;100.00
43430;BME280;29028;43.234;27.896;2022-11-14T05:53:33;101320.44;;;7.66;100.00
43430;BME280;29028;43.234;27.896;2022-11-14T05:53:54;101322.97;;;7.68;100.00
43430;BME280;29028;43.234;27.896;2022-11-14T05:54:16;101325.06;;;7.74;100.00
43430;BME280;29028;43.234;27.896;2022-11-14T05:54:37;101321.63;;;7.81;100.00
43430;BME280;29028;43.234;27.896;2022-11-14T05:54:57;101314.91;;;7.77;100.00
43430;BME280;29028;43.234;27.896;2022-11-14T05:55:18;101321.25;;;7.67;100.00
43430;BME280;29028;43.234;27.896;2022-11-14T05:55:40;101320.28;;;7.58;100.00
43430;BME280;29028;43.234;27.896;2022-11-14T05:56:02;101319.47;;;7.58;100.00
43430;BME280;29028;43.234;27.896;2022-11-14T05:56:23;101317.47;;;7.60;100.00
43430;BME280;29028;43.234;27.896;2022-11-14T05:56:45;101312.94;;;7.51;100.00
43430;BME280;29028;43.234;27.896;2022-11-14T05:57:06;101321.13;;;7.59;100.00
43430;BME280;29028;43.234;27.896;2022-11-14T05:57:27;101320.84;;;7.62;100.00
43430;BME280;29028;43.234;27.896;2022-11-14T05:57:47;101315.47;;;7.62;100.00
43430;BME280;29028;43.234;27.896;2022-11-14T05:58:09;101320.41;;;7.76;100.00
43430;BME280;29028;43.234;27.896;2022-11-14T05:58:30;101314.31;;;7.83;100.00
43430;BME280;29028;43.234;27.896;2022-11-14T05:58:51;101322.91;;;7.87;100.00
43430;BME280;29028;43.234;27.896;2022-11-14T05:59:12;101323.34;;;7.82;100.00
43430;BME280;29028;43.234;27.896;2022-11-14T05:59:34;101314.59;;;7.80;100.00
43430;BME280;29028;43.234;27.896;2022-11-14T05:59:55;101316.28;;;7.91;100.00
43430;BME280;29028;43.234;27.896;2022-11-14T06:00:17;101313.03;;;7.87;100.00
43430;BME280;29028;43.234;27.896;2022-11-14T06:00:38;101313.59;;;7.91;100.00
43430;BME280;29028;43.234;27.896;2022-11-14T06:01:04;101311.47;;;7.94;100.00
43430;BME280;29028;43.234;27.896;2022-11-14T06:01:25;101310.59;;;7.94;100.00
43430;BME280;29028;43.234;27.896;2022-11-14T06:01:47;101322.63;;;7.90;100.00
43430;BME280;29028;43.234;27.896;2022-11-14T06:02:10;101315.97;;;7.94;100.00
43430;BME280;29028;43.234;27.896;2022-11-14T06:02:31;101313.28;;;8.03;100.00
43430;BME280;29028;43.234;27.896;2022-11-14T06:02:52;101309.06;;;8.01;100.00
43430;BME280;29028;43.234;27.896;2022-11-14T06:03:13;101314.25;;;8.02;100.00
43430;BME280;29028;43.234;27.896;2022-11-14T06:03:37;101310.59;;;8.03;100.00
43430;BME280;29028;43.234;27.896;2022-11-14T06:03:58;101315.19;;;8.11;100.00
43430;BME280;29028;43.234;27.896;2022-11-14T06:04:21;101320.28;;;8.14;100.00
43430;BME280;29028;43.234;27.896;2022-11-14T06:04:43;101319.03;;;8.08;100.00
43430;BME280;29028;43.234;27.896;2022-11-14T06:05:05;101320.34;;;8.04;100.00
43430;BME280;29028;43.234;27.896;2022-11-14T06:05:26;101314.06;;;8.13;100.00
43430;BME280;29028;43.234;27.896;2022-11-14T06:05:47;101321.84;;;8.16;100.00
43430;BME280;29028;43.234;27.896;2022-11-14T06:06:10;101315.78;;;8.14;100.00
43430;BME280;29028;43.234;27.896;2022-11-14T06:06:31;101323.09;;;8.22;100.00
43430;BME280;29028;43.234;27.896;2022-11-14T06:06:52;101323.38;;;8.19;100.00
43430;BME280;29028;43.234;27.896;2022-11-14T06:07:13;101320.41;;;8.22;100.00
43430;BME280;29028;43.234;27.896;2022-11-14T06:07:35;101295.06;;;8.07;100.00
43430;BME280;29028;43.234;27.896;2022-11-14T06:07:57;101318.59;;;8.22;100.00
43430;BME280;29028;43.234;27.896;2022-11-14T06:08:18;101327.91;;;8.28;100.00
43430;BME280;29028;43.234;27.896;2022-11-14T06:08:39;101317.72;;;8.31;100.00
43430;BME280;29028;43.234;27.896;2022-11-14T06:09:00;101312.34;;;8.31;100.00
43430;BME280;29028;43.234;27.896;2022-11-14T06:09:22;101321.00;;;8.25;100.00
43430;BME280;29028;43.234;27.896;2022-11-14T06:09:43;101316.72;;;8.32;100.00
43430;BME280;29028;43.234;27.896;2022-11-14T06:10:05;101319.66;;;8.39;100.00
43430;BME280;29028;43.234;27.896;2022-11-14T06:10:26;101316.53;;;8.43;100.00
43430;BME280;29028;43.234;27.896;2022-11-14T06:10:47;101311.97;;;8.44;100.00
43430;BME280;29028;43.234;27.896;2022-11-14T06:11:09;101315.53;;;8.44;100.00
43430;BME280;29028;43.234;27.896;2022-11-14T06:11:32;101314.94;;;8.50;100.00
43430;BME280;29028;43.234;27.896;2022-11-14T06:11:52;101313.63;;;8.54;100.00
43430;BME280;29028;43.234;27.896;2022-11-14T06:12:13;101313.94;;;8.51;100.00
43430;BME280;29028;43.234;27.896;2022-11-14T06:12:34;101316.59;;;8.61;100.00
43430;BME280;29028;43.234;27.896;2022-11-14T06:12:56;101315.19;;;8.57;100.00
43430;BME280;29028;43.234;27.896;2022-11-14T06:13:17;101308.66;;;8.59;100.00
43430;BME280;29028;43.234;27.896;2022-11-14T06:13:41;101318.66;;;8.67;100.00
43430;BME280;29028;43.234;27.896;2022-11-14T06:14:03;101315.59;;;8.79;100.00
43430;BME280;29028;43.234;27.896;2022-11-14T06:14:24;101311.34;;;8.86;100.00
43430;BME280;29028;43.234;27.896;2022-11-14T06:14:44;101314.41;;;8.91;100.00
43430;BME280;29028;43.234;27.896;2022-11-14T06:15:07;101314.94;;;8.95;100.00
43430;BME280;29028;43.234;27.896;2022-11-14T06:15:28;101308.09;;;9.00;100.00
43430;BME280;29028;43.234;27.896;2022-11-14T06:15:49;101314.41;;;9.09;100.00
43430;BME280;29028;43.234;27.896;2022-11-14T06:16:11;101313.97;;;9.13;100.00
43430;BME280;29028;43.234;27.896;2022-11-14T06:16:33;101300.00;;;9.10;100.00
43430;BME280;29028;43.234;27.896;2022-11-14T06:16:54;101319.16;;;9.15;100.00
43430;BME280;29028;43.234;27.896;2022-11-14T06:17:16;101315.78;;;9.13;100.00
43430;BME280;29028;43.234;27.896;2022-11-14T06:17:38;101312.56;;;9.09;100.00
43430;BME280;29028;43.234;27.896;2022-11-14T06:17:59;101317.25;;;9.07;100.00
43430;BME280;29028;43.234;27.896;2022-11-14T06:18:19;101315.66;;;9.14;100.00
43430;BME280;29028;43.234;27.896;2022-11-14T06:18:40;101313.09;;;9.13;100.00
43430;BME280;29028;43.234;27.896;2022-11-14T06:19:02;101316.03;;;9.19;100.00
43430;BME280;29028;43.234;27.896;2022-11-14T06:19:24;101317.72;;;9.20;100.00
43430;BME280;29028;43.234;27.896;2022-11-14T06:19:45;101322.00;;;9.31;100.00
43430;BME280;29028;43.234;27.896;2022-11-14T06:20:08;101315.84;;;9.38;100.00
43430;BME280;29028;43.234;27.896;2022-11-14T06:20:29;101319.16;;;9.50;100.00
43430;BME280;29028;43.234;27.896;2022-11-14T06:20:50;101318.84;;;9.53;100.00
43430;BME280;29028;43.234;27.896;2022-11-14T06:21:14;101304.03;;;9.49;100.00
43430;BME280;29028;43.234;27.896;2022-11-14T06:21:35;101317.59;;;9.65;100.00
43430;BME280;29028;43.234;27.896;2022-11-14T06:21:56;101315.97;;;9.72;100.00
43430;BME280;29028;43.234;27.896;2022-11-14T06:22:18;101315.81;;;9.73;100.00
43430;BME280;29028;43.234;27.896;2022-11-14T06:22:39;101316.28;;;9.69;100.00
43430;BME280;29028;43.234;27.896;2022-11-14T06:23:00;101324.63;;;9.83;100.00
43430;BME280;29028;43.234;27.896;2022-11-14T06:23:20;101323.53;;;9.94;100.00
43430;BME280;29028;43.234;27.896;2022-11-14T06:23:42;101312.97;;;10.00;100.00
43430;BME280;29028;43.234;27.896;2022-11-14T06:24:04;101319.47;;;10.15;100.00
43430;BME280;29028;43.234;27.896;2022-11-14T06:24:25;101323.22;;;10.22;100.00
43430;BME280;29028;43.234;27.896;2022-11-14T06:24:47;101318.66;;;10.23;100.00
43430;BME280;29028;43.234;27.896;2022-11-14T06:25:08;101319.31;;;10.17;100.00
43430;BME280;29028;43.234;27.896;2022-11-14T06:25:29;101321.56;;;10.29;100.00
43430;BME280;29028;43.234;27.896;2022-11-14T06:25:50;101320.09;;;10.35;100.00
43430;BME280;29028;43.234;27.896;2022-11-14T06:26:15;101317.59;;;10.41;100.00
43430;BME280;29028;43.234;27.896;2022-11-14T06:26:39;101318.59;;;10.40;100.00
43430;BME280;29028;43.234;27.896;2022-11-14T06:27:01;101316.75;;;10.41;100.00
43430;BME280;29028;43.234;27.896;2022-11-14T06:27:22;101318.63;;;10.48;100.00
43430;BME280;29028;43.234;27.896;2022-11-14T06:27:43;101317.66;;;10.49;100.00
43430;BME280;29028;43.234;27.896;2022-11-14T06:28:04;101319.75;;;10.71;100.00
43430;BME280;29028;43.234;27.896;2022-11-14T06:28:25;101311.53;;;10.89;100.00
43430;BME280;29028;43.234;27.896;2022-11-14T06:28:47;101316.94;;;10.97;100.00
43430;BME280;29028;43.234;27.896;2022-11-14T06:29:09;101314.44;;;11.03;100.00
43430;BME280;29028;43.234;27.896;2022-11-14T06:29:31;101308.72;;;11.06;100.00
43430;BME280;29028;43.234;27.896;2022-11-14T06:29:52;101315.31;;;11.20;100.00
43430;BME280;29028;43.234;27.896;2022-11-14T06:30:14;101310.28;;;11.33;100.00
43430;BME280;29028;43.234;27.896;2022-11-14T06:30:34;101311.47;;;11.30;100.00
43430;BME280;29028;43.234;27.896;2022-11-14T06:30:57;101314.16;;;11.30;100.00
43430;BME280;29028;43.234;27.896;2022-11-14T06:31:21;101317.00;;;11.53;100.00
43430;BME280;29028;43.234;27.896;2022-11-14T06:31:42;101308.44;;;11.65;100.00
43430;BME280;29028;43.234;27.896;2022-11-14T06:32:04;101315.00;;;11.79;100.00
43430;BME280;29028;43.234;27.896;2022-11-14T06:32:27;101310.47;;;11.71;100.00
43430;BME280;29028;43.234;27.896;2022-11-14T06:32:48;101310.47;;;11.79;100.00
43430;BME280;29028;43.234;27.896;2022-11-14T06:33:09;101311.13;;;11.73;100.00
43430;BME280;29028;43.234;27.896;2022-11-14T06:33:33;101302.19;;;11.89;100.00
43430;BME280;29028;43.234;27.896;2022-11-14T06:33:54;101312.28;;;12.11;99.70
43430;BME280;29028;43.234;27.896;2022-11-14T06:34:16;101312.94;;;12.13;98.91
43430;BME280;29028;43.234;27.896;2022-11-14T06:34:37;101308.50;;;12.28;98.49
43430;BME280;29028;43.234;27.896;2022-11-14T06:34:58;101308.28;;;12.37;97.75
43430;BME280;29028;43.234;27.896;2022-11-14T06:35:19;101311.97;;;12.44;97.28
43430;BME280;29028;43.234;27.896;2022-11-14T06:35:40;101317.91;;;12.48;96.72
43430;BME280;29028;43.234;27.896;2022-11-14T06:36:03;101313.31;;;12.48;96.45
43430;BME280;29028;43.234;27.896;2022-11-14T06:36:25;101300.94;;;12.62;95.96
43430;BME280;29028;43.234;27.896;2022-11-14T06:36:46;101305.22;;;12.79;95.47
43430;BME280;29028;43.234;27.896;2022-11-14T06:37:07;101311.28;;;12.89;94.84
43430;BME280;29028;43.234;27.896;2022-11-14T06:37:28;101309.03;;;13.00;94.18
43430;BME280;29028;43.234;27.896;2022-11-14T06:37:49;101312.16;;;13.12;93.79
43430;BME280;29028;43.234;27.896;2022-11-14T06:38:10;101311.34;;;13.11;93.15
43430;BME280;29028;43.234;27.896;2022-11-14T06:38:33;101308.41;;;12.90;92.82
43430;BME280;29028;43.234;27.896;2022-11-14T06:38:54;101305.97;;;13.03;92.64
43430;BME280;29028;43.234;27.896;2022-11-14T06:39:14;101311.38;;;13.03;92.51
43430;BME280;29028;43.234;27.896;2022-11-14T06:39:35;101302.69;;;13.16;92.01
43430;BME280;29028;43.234;27.896;2022-11-14T06:39:57;101309.00;;;13.31;91.80
43430;BME280;29028;43.234;27.896;2022-11-14T06:40:18;101314.84;;;13.20;91.71
43430;BME280;29028;43.234;27.896;2022-11-14T06:40:39;101313.47;;;13.24;91.82
43430;BME280;29028;43.234;27.896;2022-11-14T06:41:01;101312.13;;;13.20;91.75
43430;BME280;29028;43.234;27.896;2022-11-14T06:41:23;101317.25;;;13.37;91.67
43430;BME280;29028;43.234;27.896;2022-11-14T06:41:44;101306.69;;;13.42;91.35
43430;BME280;29028;43.234;27.896;2022-11-14T06:42:05;101311.75;;;13.23;90.89
43430;BME280;29028;43.234;27.896;2022-11-14T06:42:27;101311.28;;;13.19;91.28
43430;BME280;29028;43.234;27.896;2022-11-14T06:42:47;101298.00;;;13.32;90.99
43430;BME280;29028;43.234;27.896;2022-11-14T06:43:08;101306.66;;;13.28;91.00
43430;BME280;29028;43.234;27.896;2022-11-14T06:43:31;101315.13;;;13.47;91.11
43430;BME280;29028;43.234;27.896;2022-11-14T06:43:54;101297.81;;;13.56;90.62
43430;BME280;29028;43.234;27.896;2022-11-14T06:44:14;101303.38;;;13.55;90.31
43430;BME280;29028;43.234;27.896;2022-11-14T06:44:35;101305.56;;;13.59;90.18
43430;BME280;29028;43.234;27.896;2022-11-14T06:44:56;101304.41;;;13.54;90.46
43430;BME280;29028;43.234;27.896;2022-11-14T06:45:18;101300.63;;;13.63;90.46
43430;BME280;29028;43.234;27.896;2022-11-14T06:45:39;101307.00;;;13.70;90.47
43430;BME280;29028;43.234;27.896;2022-11-14T06:46:00;101305.63;;;13.88;89.57
43430;BME280;29028;43.234;27.896;2022-11-14T06:46:21;101311.84;;;13.74;89.08
43430;BME280;29028;43.234;27.896;2022-11-14T06:46:43;101313.28;;;13.85;89.04
43430;BME280;29028;43.234;27.896;2022-11-14T06:47:04;101306.50;;;13.89;88.36
43430;BME280;29028;43.234;27.896;2022-11-14T06:47:26;101305.38;;;13.98;87.99
43430;BME280;29028;43.234;27.896;2022-11-14T06:47:47;101321.53;;;14.06;87.69
43430;BME280;29028;43.234;27.896;2022-11-14T06:48:09;101310.31;;;14.09;87.32
43430;BME280;29028;43.234;27.896;2022-11-14T06:48:30;101315.13;;;14.21;86.56
43430;BME280;29028;43.234;27.896;2022-11-14T06:48:51;101301.28;;;14.16;86.04
43430;BME280;29028;43.234;27.896;2022-11-14T06:49:13;101318.09;;;14.12;85.68
43430;BME280;29028;43.234;27.896;2022-11-14T06:49:33;101311.66;;;14.13;86.00
43430;BME280;29028;43.234;27.896;2022-11-14T06:49:54;101307.66;;;14.23;86.02
43430;BME280;29028;43.234;27.896;2022-11-14T06:50:15;101317.63;;;14.08;85.25
43430;BME280;29028;43.234;27.896;2022-11-14T06:50:37;101310.91;;;13.67;85.22
43430;BME280;29028;43.234;27.896;2022-11-14T06:50:59;101308.19;;;13.45;86.06
43430;BME280;29028;43.234;27.896;2022-11-14T06:51:20;101298.16;;;13.53;86.19
43430;BME280;29028;43.234;27.896;2022-11-14T06:51:42;101303.88;;;13.58;85.93
43430;BME280;29028;43.234;27.896;2022-11-14T06:52:03;101306.34;;;13.68;85.91
43430;BME280;29028;43.234;27.896;2022-11-14T06:52:24;101309.25;;;13.81;85.46
43430;BME280;29028;43.234;27.896;2022-11-14T06:52:45;101304.94;;;13.72;84.43
43430;BME280;29028;43.234;27.896;2022-11-14T06:53:07;101301.59;;;13.47;84.80
43430;BME280;29028;43.234;27.896;2022-11-14T06:53:30;101305.75;;;13.35;85.44
43430;BME280;29028;43.234;27.896;2022-11-14T06:53:51;101306.47;;;13.29;84.74
43430;BME280;29028;43.234;27.896;2022-11-14T06:54:13;101312.84;;;13.36;84.80
43430;BME280;29028;43.234;27.896;2022-11-14T06:54:34;101303.47;;;13.24;85.40
43430;BME280;29028;43.234;27.896;2022-11-14T06:54:55;101306.25;;;13.16;85.11
43430;BME280;29028;43.234;27.896;2022-11-14T06:55:17;101307.22;;;12.85;84.92
43430;BME280;29028;43.234;27.896;2022-11-14T06:55:39;101306.63;;;12.75;85.90